sensor_id;sensor_type;location;lat;lon;timestamp;P1;durP1;ratioP1;P2;durP2;ratioP2
2396;SDS011;1209;48.410;9.054;2023-06-22T00:00:38;5.63;;;5.10;;
2396;SDS011;1209;48.410;9.054;2023-06-22T00:03:06;11.30;;;5.87;;
2396;SDS011;1209;48.410;9.054;2023-06-22T00:05:32;7.63;;;5.77;;
2396;SDS011;1209;48.410;9.054;2023-06-22T00:07:57;8.37;;;5.47;;
2396;SDS011;1209;48.410;9.054;2023-06-22T00:10:26;8.43;;;5.50;;
2396;SDS011;1209;48.410;9.054;2023-06-22T00:12:52;9.20;;;5.10;;
2396;SDS011;1209;48.410;9.054;2023-06-22T00:15:17;13.43;;;6.80;;
2396;SDS011;1209;48.410;9.054;2023-06-22T00:17:42;11.37;;;6.53;;
2396;SDS011;1209;48.410;9.054;2023-06-22T00:20:08;7.07;;;5.40;;
2396;SDS011;1209;48.410;9.054;2023-06-22T00:22:35;6.53;;;5.10;;
2396;SDS011;1209;48.410;9.054;2023-06-22T00:25:03;7.43;;;5.40;;
2396;SDS011;1209;48.410;9.054;2023-06-22T00:27:32;8.90;;;4.97;;
2396;SDS011;1209;48.410;9.054;2023-06-22T00:29:57;6.90;;;5.40;;
2396;SDS011;1209;48.410;9.054;2023-06-22T00:32:23;5.80;;;5.23;;
2396;SDS011;1209;48.410;9.054;2023-06-22T00:34:48;8.03;;;5.33;;
2396;SDS011;1209;48.410;9.054;2023-06-22T00:37:13;8.20;;;5.60;;
2396;SDS011;1209;48.410;9.054;2023-06-22T00:39:39;15.30;;;6.03;;
2396;SDS011;1209;48.410;9.054;2023-06-22T00:42:04;7.23;;;5.50;;
2396;SDS011;1209;48.410;9.054;2023-06-22T00:44:30;6.97;;;5.23;;
2396;SDS011;1209;48.410;9.054;2023-06-22T00:46:55;6.00;;;4.77;;
2396;SDS011;1209;48.410;9.054;2023-06-22T00:49:20;8.63;;;5.47;;
2396;SDS011;1209;48.410;9.054;2023-06-22T00:51:46;7.33;;;5.83;;
2396;SDS011;1209;48.410;9.054;2023-06-22T00:54:12;6.90;;;5.33;;
2396;SDS011;1209;48.410;9.054;2023-06-22T00:56:39;15.47;;;6.63;;
2396;SDS011;1209;48.410;9.054;2023-06-22T00:59:05;6.77;;;5.07;;
2396;SDS011;1209;48.410;9.054;2023-06-22T01:01:31;8.97;;;6.23;;
2396;SDS011;1209;48.410;9.054;2023-06-22T01:03:57;5.43;;;4.83;;
2396;SDS011;1209;48.410;9.054;2023-06-22T01:06:26;7.73;;;5.47;;
2396;SDS011;1209;48.410;9.054;2023-06-22T01:08:59;10.37;;;6.17;;
2396;SDS011;1209;48.410;9.054;2023-06-22T01:11:32;8.33;;;6.33;;
2396;SDS011;1209;48.410;9.054;2023-06-22T01:14:05;8.70;;;6.77;;
2396;SDS011;1209;48.410;9.054;2023-06-22T01:16:37;13.97;;;7.03;;
2396;SDS011;1209;48.410;9.054;2023-06-22T01:19:21;9.13;;;5.97;;
2396;SDS011;1209;48.410;9.054;2023-06-22T01:21:51;11.73;;;5.97;;
2396;SDS011;1209;48.410;9.054;2023-06-22T01:24:26;6.77;;;6.07;;
2396;SDS011;1209;48.410;9.054;2023-06-22T01:27:00;10.70;;;5.80;;
2396;SDS011;1209;48.410;9.054;2023-06-22T01:29:35;7.43;;;5.80;;
2396;SDS011;1209;48.410;9.054;2023-06-22T01:32:03;8.40;;;6.80;;
2396;SDS011;1209;48.410;9.054;2023-06-22T01:34:30;10.03;;;6.20;;
2396;SDS011;1209;48.410;9.054;2023-06-22T01:36:58;7.97;;;5.77;;
2396;SDS011;1209;48.410;9.054;2023-06-22T01:39:27;7.73;;;6.10;;
2396;SDS011;1209;48.410;9.054;2023-06-22T01:41:52;8.17;;;6.40;;
2396;SDS011;1209;48.410;9.054;2023-06-22T01:44:19;9.10;;;6.43;;
2396;SDS011;1209;48.410;9.054;2023-06-22T01:46:45;9.10;;;6.60;;
2396;SDS011;1209;48.410;9.054;2023-06-22T01:49:11;7.20;;;6.13;;
2396;SDS011;1209;48.410;9.054;2023-06-22T01:51:37;6.97;;;6.07;;
2396;SDS011;1209;48.410;9.054;2023-06-22T01:54:02;7.97;;;6.00;;
2396;SDS011;1209;48.410;9.054;2023-06-22T01:56:28;9.67;;;5.90;;
2396;SDS011;1209;48.410;9.054;2023-06-22T01:59:03;7.70;;;6.30;;
2396;SDS011;1209;48.410;9.054;2023-06-22T02:01:38;10.47;;;6.47;;
2396;SDS011;1209;48.410;9.054;2023-06-22T02:04:11;8.40;;;6.30;;
2396;SDS011;1209;48.410;9.054;2023-06-22T02:06:43;8.00;;;5.20;;
2396;SDS011;1209;48.410;9.054;2023-06-22T02:09:12;7.10;;;5.00;;
2396;SDS011;1209;48.410;9.054;2023-06-22T02:11:41;6.43;;;5.33;;
2396;SDS011;1209;48.410;9.054;2023-06-22T02:14:08;7.30;;;5.60;;
2396;SDS011;1209;48.410;9.054;2023-06-22T02:16:34;8.80;;;5.70;;
2396;SDS011;1209;48.410;9.054;2023-06-22T02:19:00;7.63;;;4.77;;
2396;SDS011;1209;48.410;9.054;2023-06-22T02:21:28;7.30;;;4.27;;
2396;SDS011;1209;48.410;9.054;2023-06-22T02:23:54;9.90;;;4.57;;
2396;SDS011;1209;48.410;9.054;2023-06-22T02:26:19;5.80;;;5.13;;
2396;SDS011;1209;48.410;9.054;2023-06-22T02:28:44;4.50;;;4.10;;
2396;SDS011;1209;48.410;9.054;2023-06-22T02:31:10;5.73;;;4.63;;
2396;SDS011;1209;48.410;9.054;2023-06-22T02:33:36;7.10;;;6.30;;
2396;SDS011;1209;48.410;9.054;2023-06-22T02:36:01;9.33;;;5.70;;
2396;SDS011;1209;48.410;9.054;2023-06-22T02:38:30;7.23;;;4.73;;
2396;SDS011;1209;48.410;9.054;2023-06-22T02:40:59;5.33;;;4.27;;
2396;SDS011;1209;48.410;9.054;2023-06-22T02:43:25;6.20;;;4.83;;
2396;SDS011;1209;48.410;9.054;2023-06-22T02:45:50;10.83;;;5.50;;
2396;SDS011;1209;48.410;9.054;2023-06-22T02:48:16;14.00;;;5.03;;
2396;SDS011;1209;48.410;9.054;2023-06-22T02:50:41;8.50;;;5.90;;
2396;SDS011;1209;48.410;9.054;2023-06-22T02:53:06;6.80;;;5.37;;
2396;SDS011;1209;48.410;9.054;2023-06-22T02:55:32;5.60;;;4.57;;
2396;SDS011;1209;48.410;9.054;2023-06-22T02:57:57;6.17;;;4.73;;
2396;SDS011;1209;48.410;9.054;2023-06-22T03:00:24;5.80;;;5.10;;
2396;SDS011;1209;48.410;9.054;2023-06-22T03:02:55;6.40;;;5.20;;
2396;SDS011;1209;48.410;9.054;2023-06-22T03:05:21;7.33;;;6.03;;
2396;SDS011;1209;48.410;9.054;2023-06-22T03:07:46;8.17;;;5.30;;
2396;SDS011;1209;48.410;9.054;2023-06-22T03:10:12;6.63;;;5.00;;
2396;SDS011;1209;48.410;9.054;2023-06-22T03:12:38;9.30;;;5.23;;
2396;SDS011;1209;48.410;9.054;2023-06-22T03:15:11;6.97;;;5.20;;
2396;SDS011;1209;48.410;9.054;2023-06-22T03:17:37;11.07;;;5.60;;
2396;SDS011;1209;48.410;9.054;2023-06-22T03:20:05;8.97;;;5.80;;
2396;SDS011;1209;48.410;9.054;2023-06-22T03:22:41;8.67;;;5.60;;
2396;SDS011;1209;48.410;9.054;2023-06-22T03:25:07;4.90;;;4.33;;
2396;SDS011;1209;48.410;9.054;2023-06-22T03:27:40;12.20;;;5.53;;
2396;SDS011;1209;48.410;9.054;2023-06-22T03:30:07;6.20;;;5.00;;
2396;SDS011;1209;48.410;9.054;2023-06-22T03:32:34;7.57;;;4.90;;
2396;SDS011;1209;48.410;9.054;2023-06-22T03:35:00;11.03;;;5.00;;
2396;SDS011;1209;48.410;9.054;2023-06-22T03:37:26;6.70;;;4.43;;
2396;SDS011;1209;48.410;9.054;2023-06-22T03:39:51;6.50;;;4.30;;
2396;SDS011;1209;48.410;9.054;2023-06-22T03:42:17;7.00;;;4.77;;
2396;SDS011;1209;48.410;9.054;2023-06-22T03:44:42;6.23;;;4.70;;
2396;SDS011;1209;48.410;9.054;2023-06-22T03:47:07;7.60;;;4.70;;
2396;SDS011;1209;48.410;9.054;2023-06-22T03:49:33;7.50;;;4.90;;
2396;SDS011;1209;48.410;9.054;2023-06-22T03:51:59;8.30;;;4.57;;
2396;SDS011;1209;48.410;9.054;2023-06-22T03:54:26;6.13;;;4.37;;
2396;SDS011;1209;48.410;9.054;2023-06-22T03:56:51;5.27;;;3.60;;
2396;SDS011;1209;48.410;9.054;2023-06-22T03:59:16;5.77;;;3.97;;
2396;SDS011;1209;48.410;9.054;2023-06-22T04:01:42;9.37;;;4.57;;
2396;SDS011;1209;48.410;9.054;2023-06-22T04:04:07;10.37;;;4.20;;
2396;SDS011;1209;48.410;9.054;2023-06-22T04:06:32;5.17;;;4.33;;
2396;SDS011;1209;48.410;9.054;2023-06-22T04:08:58;6.30;;;4.07;;
2396;SDS011;1209;48.410;9.054;2023-06-22T04:11:24;7.30;;;4.73;;
2396;SDS011;1209;48.410;9.054;2023-06-22T04:13:49;9.37;;;4.60;;
2396;SDS011;1209;48.410;9.054;2023-06-22T04:16:16;6.33;;;4.20;;
2396;SDS011;1209;48.410;9.054;2023-06-22T04:18:41;7.90;;;4.63;;
2396;SDS011;1209;48.410;9.054;2023-06-22T04:21:06;8.13;;;4.57;;
2396;SDS011;1209;48.410;9.054;2023-06-22T04:23:32;6.33;;;3.87;;
2396;SDS011;1209;48.410;9.054;2023-06-22T04:25:57;9.50;;;4.60;;
2396;SDS011;1209;48.410;9.054;2023-06-22T04:28:24;7.83;;;4.70;;
2396;SDS011;1209;48.410;9.054;2023-06-22T04:30:49;10.10;;;4.70;;
2396;SDS011;1209;48.410;9.054;2023-06-22T04:33:15;5.87;;;4.67;;
2396;SDS011;1209;48.410;9.054;2023-06-22T04:35:44;5.53;;;4.50;;
2396;SDS011;1209;48.410;9.054;2023-06-22T04:38:11;7.17;;;4.40;;
2396;SDS011;1209;48.410;9.054;2023-06-22T04:40:40;6.53;;;4.50;;
2396;SDS011;1209;48.410;9.054;2023-06-22T04:43:06;12.83;;;6.10;;
2396;SDS011;1209;48.410;9.054;2023-06-22T04:45:32;10.00;;;6.20;;
2396;SDS011;1209;48.410;9.054;2023-06-22T04:47:58;9.40;;;6.20;;
2396;SDS011;1209;48.410;9.054;2023-06-22T04:50:23;6.40;;;5.07;;
2396;SDS011;1209;48.410;9.054;2023-06-22T04:52:49;7.70;;;5.90;;
2396;SDS011;1209;48.410;9.054;2023-06-22T04:55:14;13.83;;;6.07;;
2396;SDS011;1209;48.410;9.054;2023-06-22T04:57:45;10.07;;;5.60;;
2396;SDS011;1209;48.410;9.054;2023-06-22T05:00:14;8.97;;;5.73;;
2396;SDS011;1209;48.410;9.054;2023-06-22T05:02:48;8.83;;;6.80;;
2396;SDS011;1209;48.410;9.054;2023-06-22T05:05:14;12.70;;;8.10;;
2396;SDS011;1209;48.410;9.054;2023-06-22T05:07:41;15.87;;;9.10;;
2396;SDS011;1209;48.410;9.054;2023-06-22T05:10:08;18.53;;;9.30;;
2396;SDS011;1209;48.410;9.054;2023-06-22T05:12:35;9.93;;;7.60;;
2396;SDS011;1209;48.410;9.054;2023-06-22T05:15:00;10.47;;;7.70;;
2396;SDS011;1209;48.410;9.054;2023-06-22T05:17:26;24.60;;;10.60;;
2396;SDS011;1209;48.410;9.054;2023-06-22T05:19:52;12.50;;;8.60;;
2396;SDS011;1209;48.410;9.054;2023-06-22T05:22:18;10.77;;;8.70;;
2396;SDS011;1209;48.410;9.054;2023-06-22T05:24:43;12.03;;;9.77;;
2396;SDS011;1209;48.410;9.054;2023-06-22T05:27:12;11.40;;;8.70;;
2396;SDS011;1209;48.410;9.054;2023-06-22T05:29:37;12.00;;;9.30;;
2396;SDS011;1209;48.410;9.054;2023-06-22T05:32:03;12.20;;;9.07;;
2396;SDS011;1209;48.410;9.054;2023-06-22T05:34:29;11.03;;;8.90;;
2396;SDS011;1209;48.410;9.054;2023-06-22T05:36:54;12.17;;;9.37;;
2396;SDS011;1209;48.410;9.054;2023-06-22T05:39:19;13.83;;;8.47;;
2396;SDS011;1209;48.410;9.054;2023-06-22T05:41:45;11.10;;;9.00;;
2396;SDS011;1209;48.410;9.054;2023-06-22T05:44:11;14.83;;;9.70;;
2396;SDS011;1209;48.410;9.054;2023-06-22T05:46:36;10.60;;;8.50;;
2396;SDS011;1209;48.410;9.054;2023-06-22T05:49:02;13.80;;;11.23;;
2396;SDS011;1209;48.410;9.054;2023-06-22T05:51:27;15.50;;;9.80;;
2396;SDS011;1209;48.410;9.054;2023-06-22T05:53:52;13.20;;;10.40;;
2396;SDS011;1209;48.410;9.054;2023-06-22T05:56:18;13.43;;;9.20;;
2396;SDS011;1209;48.410;9.054;2023-06-22T05:58:43;16.73;;;9.07;;
2396;SDS011;1209;48.410;9.054;2023-06-22T06:01:09;11.37;;;9.23;;
2396;SDS011;1209;48.410;9.054;2023-06-22T06:03:34;12.77;;;8.97;;
2396;SDS011;1209;48.410;9.054;2023-06-22T06:06:06;13.10;;;8.77;;
2396;SDS011;1209;48.410;9.054;2023-06-22T06:08:32;12.77;;;9.30;;
2396;SDS011;1209;48.410;9.054;2023-06-22T06:10:57;14.23;;;9.00;;
2396;SDS011;1209;48.410;9.054;2023-06-22T06:13:22;14.03;;;9.20;;
2396;SDS011;1209;48.410;9.054;2023-06-22T06:15:48;13.20;;;9.03;;
2396;SDS011;1209;48.410;9.054;2023-06-22T06:18:13;13.00;;;9.37;;
2396;SDS011;1209;48.410;9.054;2023-06-22T06:20:38;13.63;;;8.53;;
2396;SDS011;1209;48.410;9.054;2023-06-22T06:23:04;10.93;;;7.53;;
2396;SDS011;1209;48.410;9.054;2023-06-22T06:25:29;15.10;;;9.10;;
2396;SDS011;1209;48.410;9.054;2023-06-22T06:27:54;13.90;;;8.97;;
2396;SDS011;1209;48.410;9.054;2023-06-22T06:30:20;10.57;;;7.90;;
2396;SDS011;1209;48.410;9.054;2023-06-22T06:32:46;15.43;;;9.57;;
2396;SDS011;1209;48.410;9.054;2023-06-22T06:35:13;11.60;;;8.13;;
2396;SDS011;1209;48.410;9.054;2023-06-22T06:37:41;11.27;;;7.50;;
2396;SDS011;1209;48.410;9.054;2023-06-22T06:40:07;10.40;;;7.20;;
2396;SDS011;1209;48.410;9.054;2023-06-22T06:42:35;10.73;;;7.00;;
2396;SDS011;1209;48.410;9.054;2023-06-22T06:45:03;9.03;;;7.33;;
2396;SDS011;1209;48.410;9.054;2023-06-22T06:47:29;11.80;;;7.87;;
2396;SDS011;1209;48.410;9.054;2023-06-22T06:49:55;10.67;;;7.33;;
2396;SDS011;1209;48.410;9.054;2023-06-22T06:52:20;16.70;;;9.90;;
2396;SDS011;1209;48.410;9.054;2023-06-22T06:54:45;10.70;;;8.17;;
2396;SDS011;1209;48.410;9.054;2023-06-22T06:57:11;10.20;;;7.93;;
2396;SDS011;1209;48.410;9.054;2023-06-22T06:59:38;11.20;;;8.00;;
2396;SDS011;1209;48.410;9.054;2023-06-22T07:02:04;9.93;;;7.47;;
2396;SDS011;1209;48.410;9.054;2023-06-22T07:04:30;10.70;;;7.50;;
2396;SDS011;1209;48.410;9.054;2023-06-22T07:06:55;11.63;;;8.00;;
2396;SDS011;1209;48.410;9.054;2023-06-22T07:09:20;11.37;;;7.93;;
2396;SDS011;1209;48.410;9.054;2023-06-22T07:11:45;11.77;;;8.10;;
2396;SDS011;1209;48.410;9.054;2023-06-22T07:14:11;11.07;;;7.63;;
2396;SDS011;1209;48.410;9.054;2023-06-22T07:16:36;11.07;;;7.10;;
2396;SDS011;1209;48.410;9.054;2023-06-22T07:19:01;9.27;;;6.40;;
2396;SDS011;1209;48.410;9.054;2023-06-22T07:21:27;9.87;;;6.60;;
2396;SDS011;1209;48.410;9.054;2023-06-22T07:23:52;12.60;;;7.27;;
2396;SDS011;1209;48.410;9.054;2023-06-22T07:26:19;6.90;;;5.63;;
2396;SDS011;1209;48.410;9.054;2023-06-22T07:28:44;7.37;;;5.93;;
2396;SDS011;1209;48.410;9.054;2023-06-22T07:31:09;7.63;;;6.30;;
2396;SDS011;1209;48.410;9.054;2023-06-22T07:33:35;10.30;;;6.40;;
2396;SDS011;1209;48.410;9.054;2023-06-22T07:36:00;12.53;;;5.47;;
2396;SDS011;1209;48.410;9.054;2023-06-22T07:38:25;11.27;;;6.57;;
2396;SDS011;1209;48.410;9.054;2023-06-22T07:40:51;10.77;;;5.97;;
2396;SDS011;1209;48.410;9.054;2023-06-22T07:43:18;13.17;;;5.93;;
2396;SDS011;1209;48.410;9.054;2023-06-22T07:45:48;10.00;;;5.70;;
2396;SDS011;1209;48.410;9.054;2023-06-22T07:48:17;9.33;;;6.00;;
2396;SDS011;1209;48.410;9.054;2023-06-22T07:50:44;9.47;;;5.93;;
2396;SDS011;1209;48.410;9.054;2023-06-22T07:53:09;11.60;;;6.57;;
2396;SDS011;1209;48.410;9.054;2023-06-22T07:55:35;11.17;;;6.27;;
2396;SDS011;1209;48.410;9.054;2023-06-22T07:58:00;10.27;;;6.10;;
2396;SDS011;1209;48.410;9.054;2023-06-22T08:00:25;6.70;;;5.93;;
2396;SDS011;1209;48.410;9.054;2023-06-22T08:02:51;8.20;;;7.10;;
2396;SDS011;1209;48.410;9.054;2023-06-22T08:05:16;5.50;;;4.90;;
2396;SDS011;1209;48.410;9.054;2023-06-22T08:07:43;6.07;;;5.00;;
2396;SDS011;1209;48.410;9.054;2023-06-22T08:10:12;11.30;;;5.93;;
2396;SDS011;1209;48.410;9.054;2023-06-22T08:12:41;9.17;;;5.70;;
2396;SDS011;1209;48.410;9.054;2023-06-22T08:15:07;7.80;;;6.20;;
2396;SDS011;1209;48.410;9.054;2023-06-22T08:17:34;9.23;;;6.50;;
2396;SDS011;1209;48.410;9.054;2023-06-22T08:19:59;7.27;;;5.20;;
2396;SDS011;1209;48.410;9.054;2023-06-22T08:22:25;7.87;;;5.67;;
2396;SDS011;1209;48.410;9.054;2023-06-22T08:24:50;6.93;;;5.67;;
2396;SDS011;1209;48.410;9.054;2023-06-22T08:27:15;8.87;;;5.63;;
2396;SDS011;1209;48.410;9.054;2023-06-22T08:29:41;6.77;;;5.40;;
2396;SDS011;1209;48.410;9.054;2023-06-22T08:32:08;8.70;;;5.30;;
2396;SDS011;1209;48.410;9.054;2023-06-22T08:34:34;8.40;;;5.10;;
2396;SDS011;1209;48.410;9.054;2023-06-22T08:36:59;6.23;;;5.60;;
2396;SDS011;1209;48.410;9.054;2023-06-22T08:39:25;6.43;;;5.40;;
2396;SDS011;1209;48.410;9.054;2023-06-22T08:41:50;7.60;;;4.80;;
2396;SDS011;1209;48.410;9.054;2023-06-22T08:44:16;7.27;;;5.80;;
2396;SDS011;1209;48.410;9.054;2023-06-22T08:46:43;7.00;;;5.40;;
2396;SDS011;1209;48.410;9.054;2023-06-22T08:49:08;11.60;;;5.70;;
2396;SDS011;1209;48.410;9.054;2023-06-22T08:51:34;10.70;;;5.20;;
2396;SDS011;1209;48.410;9.054;2023-06-22T08:54:00;6.23;;;5.63;;
2396;SDS011;1209;48.410;9.054;2023-06-22T08:56:25;11.83;;;6.40;;
2396;SDS011;1209;48.410;9.054;2023-06-22T08:58:50;10.30;;;5.63;;
2396;SDS011;1209;48.410;9.054;2023-06-22T09:01:16;9.07;;;6.13;;
2396;SDS011;1209;48.410;9.054;2023-06-22T09:03:41;7.97;;;5.33;;
2396;SDS011;1209;48.410;9.054;2023-06-22T09:06:07;6.33;;;4.83;;
2396;SDS011;1209;48.410;9.054;2023-06-22T09:08:34;6.83;;;5.30;;
2396;SDS011;1209;48.410;9.054;2023-06-22T09:10:59;8.80;;;5.60;;
2396;SDS011;1209;48.410;9.054;2023-06-22T09:13:24;12.07;;;6.10;;
2396;SDS011;1209;48.410;9.054;2023-06-22T09:15:50;7.10;;;5.87;;
2396;SDS011;1209;48.410;9.054;2023-06-22T09:18:15;8.73;;;5.13;;
2396;SDS011;1209;48.410;9.054;2023-06-22T09:20:40;5.77;;;4.97;;
2396;SDS011;1209;48.410;9.054;2023-06-22T09:23:06;10.80;;;5.40;;
2396;SDS011;1209;48.410;9.054;2023-06-22T09:25:31;8.37;;;6.03;;
2396;SDS011;1209;48.410;9.054;2023-06-22T09:27:56;7.63;;;5.00;;
2396;SDS011;1209;48.410;9.054;2023-06-22T09:30:21;10.93;;;5.40;;
2396;SDS011;1209;48.410;9.054;2023-06-22T09:32:47;6.73;;;5.80;;
2396;SDS011;1209;48.410;9.054;2023-06-22T09:35:13;8.00;;;5.30;;
2396;SDS011;1209;48.410;9.054;2023-06-22T09:37:39;9.40;;;6.53;;
2396;SDS011;1209;48.410;9.054;2023-06-22T09:40:05;8.73;;;5.30;;
2396;SDS011;1209;48.410;9.054;2023-06-22T09:42:34;7.27;;;5.40;;
2396;SDS011;1209;48.410;9.054;2023-06-22T09:44:59;8.40;;;6.67;;
2396;SDS011;1209;48.410;9.054;2023-06-22T09:47:24;9.07;;;5.50;;
2396;SDS011;1209;48.410;9.054;2023-06-22T09:49:50;11.00;;;5.40;;
2396;SDS011;1209;48.410;9.054;2023-06-22T09:52:15;7.60;;;5.87;;
2396;SDS011;1209;48.410;9.054;2023-06-22T09:54:41;9.80;;;5.80;;
2396;SDS011;1209;48.410;9.054;2023-06-22T09:57:06;12.40;;;7.77;;
2396;SDS011;1209;48.410;9.054;2023-06-22T09:59:32;11.63;;;6.10;;
2396;SDS011;1209;48.410;9.054;2023-06-22T10:01:58;7.27;;;6.03;;
2396;SDS011;1209;48.410;9.054;2023-06-22T10:04:23;8.40;;;6.07;;
2396;SDS011;1209;48.410;9.054;2023-06-22T10:06:49;9.13;;;7.70;;
2396;SDS011;1209;48.410;9.054;2023-06-22T10:09:14;5.77;;;5.17;;
2396;SDS011;1209;48.410;9.054;2023-06-22T10:11:40;8.23;;;5.90;;
2396;SDS011;1209;48.410;9.054;2023-06-22T10:14:05;10.03;;;5.73;;
2396;SDS011;1209;48.410;9.054;2023-06-22T10:16:30;6.90;;;4.53;;
2396;SDS011;1209;48.410;9.054;2023-06-22T10:18:57;11.47;;;5.33;;
2396;SDS011;1209;48.410;9.054;2023-06-22T10:21:22;10.70;;;6.00;;
2396;SDS011;1209;48.410;9.054;2023-06-22T10:23:47;8.80;;;5.97;;
2396;SDS011;1209;48.410;9.054;2023-06-22T10:26:13;10.03;;;6.03;;
2396;SDS011;1209;48.410;9.054;2023-06-22T10:28:38;8.87;;;5.53;;
2396;SDS011;1209;48.410;9.054;2023-06-22T10:31:03;9.43;;;6.00;;
2396;SDS011;1209;48.410;9.054;2023-06-22T10:33:28;7.63;;;5.60;;
2396;SDS011;1209;48.410;9.054;2023-06-22T10:35:54;5.70;;;4.77;;
2396;SDS011;1209;48.410;9.054;2023-06-22T10:38:19;7.87;;;5.00;;
2396;SDS011;1209;48.410;9.054;2023-06-22T10:40:44;7.20;;;4.93;;
2396;SDS011;1209;48.410;9.054;2023-06-22T10:43:10;6.67;;;4.90;;
2396;SDS011;1209;48.410;9.054;2023-06-22T10:45:35;10.87;;;5.60;;
2396;SDS011;1209;48.410;9.054;2023-06-22T10:48:01;6.90;;;5.57;;
2396;SDS011;1209;48.410;9.054;2023-06-22T10:50:26;14.93;;;4.90;;
2396;SDS011;1209;48.410;9.054;2023-06-22T10:52:52;7.13;;;5.73;;
2396;SDS011;1209;48.410;9.054;2023-06-22T10:55:19;8.70;;;5.47;;
2396;SDS011;1209;48.410;9.054;2023-06-22T10:57:44;11.93;;;5.57;;
2396;SDS011;1209;48.410;9.054;2023-06-22T11:00:12;8.67;;;5.07;;
2396;SDS011;1209;48.410;9.054;2023-06-22T11:02:38;11.63;;;5.60;;
2396;SDS011;1209;48.410;9.054;2023-06-22T11:05:04;8.70;;;4.93;;
2396;SDS011;1209;48.410;9.054;2023-06-22T11:07:29;11.37;;;5.10;;
2396;SDS011;1209;48.410;9.054;2023-06-22T11:09:55;12.80;;;5.30;;
2396;SDS011;1209;48.410;9.054;2023-06-22T11:12:21;7.97;;;5.77;;
2396;SDS011;1209;48.410;9.054;2023-06-22T11:14:46;11.90;;;5.33;;
2396;SDS011;1209;48.410;9.054;2023-06-22T11:17:11;9.10;;;6.00;;
2396;SDS011;1209;48.410;9.054;2023-06-22T11:19:37;10.73;;;5.20;;
2396;SDS011;1209;48.410;9.054;2023-06-22T11:22:02;8.53;;;5.20;;
2396;SDS011;1209;48.410;9.054;2023-06-22T11:24:28;11.43;;;5.17;;
2396;SDS011;1209;48.410;9.054;2023-06-22T11:26:53;7.70;;;5.50;;
2396;SDS011;1209;48.410;9.054;2023-06-22T11:29:18;11.97;;;6.30;;
2396;SDS011;1209;48.410;9.054;2023-06-22T11:31:44;8.77;;;6.47;;
2396;SDS011;1209;48.410;9.054;2023-06-22T11:34:09;6.23;;;5.50;;
2396;SDS011;1209;48.410;9.054;2023-06-22T11:36:34;6.60;;;5.43;;
2396;SDS011;1209;48.410;9.054;2023-06-22T11:39:00;10.63;;;9.53;;
2396;SDS011;1209;48.410;9.054;2023-06-22T11:41:26;10.93;;;6.40;;
2396;SDS011;1209;48.410;9.054;2023-06-22T11:43:51;9.63;;;6.03;;
2396;SDS011;1209;48.410;9.054;2023-06-22T11:46:17;10.70;;;5.07;;
2396;SDS011;1209;48.410;9.054;2023-06-22T11:48:42;9.57;;;6.03;;
2396;SDS011;1209;48.410;9.054;2023-06-22T11:51:07;8.30;;;5.80;;
2396;SDS011;1209;48.410;9.054;2023-06-22T11:53:33;11.40;;;5.27;;
2396;SDS011;1209;48.410;9.054;2023-06-22T11:55:59;8.40;;;5.60;;
2396;SDS011;1209;48.410;9.054;2023-06-22T11:58:26;8.30;;;5.80;;
2396;SDS011;1209;48.410;9.054;2023-06-22T12:00:51;13.63;;;5.40;;
2396;SDS011;1209;48.410;9.054;2023-06-22T12:03:17;10.23;;;5.60;;
2396;SDS011;1209;48.410;9.054;2023-06-22T12:05:42;4.93;;;4.43;;
2396;SDS011;1209;48.410;9.054;2023-06-22T12:08:08;5.80;;;4.97;;
2396;SDS011;1209;48.410;9.054;2023-06-22T12:10:34;11.07;;;4.70;;
2396;SDS011;1209;48.410;9.054;2023-06-22T12:12:59;8.03;;;5.00;;
2396;SDS011;1209;48.410;9.054;2023-06-22T12:15:25;10.83;;;5.70;;
2396;SDS011;1209;48.410;9.054;2023-06-22T12:17:51;8.60;;;5.73;;
2396;SDS011;1209;48.410;9.054;2023-06-22T12:20:16;14.13;;;5.20;;
2396;SDS011;1209;48.410;9.054;2023-06-22T12:22:42;6.70;;;5.43;;
2396;SDS011;1209;48.410;9.054;2023-06-22T12:25:08;7.23;;;5.20;;
2396;SDS011;1209;48.410;9.054;2023-06-22T12:27:34;6.90;;;5.23;;
2396;SDS011;1209;48.410;9.054;2023-06-22T12:30:00;7.43;;;4.87;;
2396;SDS011;1209;48.410;9.054;2023-06-22T12:32:26;9.23;;;5.10;;
2396;SDS011;1209;48.410;9.054;2023-06-22T12:34:51;15.17;;;5.70;;
2396;SDS011;1209;48.410;9.054;2023-06-22T12:37:17;7.13;;;5.60;;
2396;SDS011;1209;48.410;9.054;2023-06-22T12:39:42;9.50;;;5.37;;
2396;SDS011;1209;48.410;9.054;2023-06-22T12:42:08;6.93;;;5.30;;
2396;SDS011;1209;48.410;9.054;2023-06-22T12:44:34;8.27;;;5.30;;
2396;SDS011;1209;48.410;9.054;2023-06-22T12:47:00;8.10;;;5.00;;
2396;SDS011;1209;48.410;9.054;2023-06-22T12:49:25;13.43;;;5.63;;
2396;SDS011;1209;48.410;9.054;2023-06-22T12:51:51;8.80;;;5.73;;
2396;SDS011;1209;48.410;9.054;2023-06-22T12:54:16;8.33;;;5.70;;
2396;SDS011;1209;48.410;9.054;2023-06-22T12:56:41;11.20;;;6.13;;
2396;SDS011;1209;48.410;9.054;2023-06-22T12:59:08;8.23;;;5.43;;
2396;SDS011;1209;48.410;9.054;2023-06-22T13:01:34;5.83;;;5.17;;
2396;SDS011;1209;48.410;9.054;2023-06-22T13:03:59;9.33;;;5.27;;
2396;SDS011;1209;48.410;9.054;2023-06-22T13:06:25;7.33;;;5.33;;
2396;SDS011;1209;48.410;9.054;2023-06-22T13:08:50;9.00;;;5.30;;
2396;SDS011;1209;48.410;9.054;2023-06-22T13:11:15;9.30;;;5.43;;
2396;SDS011;1209;48.410;9.054;2023-06-22T13:13:41;6.93;;;5.33;;
2396;SDS011;1209;48.410;9.054;2023-06-22T13:16:06;9.83;;;5.20;;
2396;SDS011;1209;48.410;9.054;2023-06-22T13:18:32;7.43;;;5.17;;
2396;SDS011;1209;48.410;9.054;2023-06-22T13:20:58;8.60;;;5.27;;
2396;SDS011;1209;48.410;9.054;2023-06-22T13:23:25;8.73;;;5.10;;
2396;SDS011;1209;48.410;9.054;2023-06-22T13:25:50;8.53;;;5.67;;
2396;SDS011;1209;48.410;9.054;2023-06-22T13:28:15;8.77;;;5.30;;
2396;SDS011;1209;48.410;9.054;2023-06-22T13:30:41;6.30;;;5.70;;
2396;SDS011;1209;48.410;9.054;2023-06-22T13:33:07;7.00;;;5.63;;
2396;SDS011;1209;48.410;9.054;2023-06-22T13:35:32;7.40;;;5.20;;
2396;SDS011;1209;48.410;9.054;2023-06-22T13:37:57;6.33;;;4.90;;
2396;SDS011;1209;48.410;9.054;2023-06-22T13:40:23;12.47;;;5.57;;
2396;SDS011;1209;48.410;9.054;2023-06-22T13:42:48;7.77;;;5.33;;
2396;SDS011;1209;48.410;9.054;2023-06-22T13:45:13;8.30;;;4.97;;
2396;SDS011;1209;48.410;9.054;2023-06-22T13:47:39;6.67;;;4.93;;
2396;SDS011;1209;48.410;9.054;2023-06-22T13:50:04;8.63;;;5.70;;
2396;SDS011;1209;48.410;9.054;2023-06-22T13:52:30;7.43;;;6.30;;
2396;SDS011;1209;48.410;9.054;2023-06-22T13:54:55;10.60;;;6.00;;
2396;SDS011;1209;48.410;9.054;2023-06-22T13:57:21;10.90;;;5.43;;
2396;SDS011;1209;48.410;9.054;2023-06-22T13:59:46;16.60;;;6.50;;
2396;SDS011;1209;48.410;9.054;2023-06-22T14:02:11;8.30;;;5.63;;
2396;SDS011;1209;48.410;9.054;2023-06-22T14:04:36;8.03;;;5.23;;
2396;SDS011;1209;48.410;9.054;2023-06-22T14:07:02;8.30;;;5.40;;
2396;SDS011;1209;48.410;9.054;2023-06-22T14:09:27;6.80;;;5.80;;
2396;SDS011;1209;48.410;9.054;2023-06-22T14:11:53;7.30;;;5.43;;
2396;SDS011;1209;48.410;9.054;2023-06-22T14:14:19;6.63;;;5.40;;
2396;SDS011;1209;48.410;9.054;2023-06-22T14:16:45;9.53;;;5.20;;
2396;SDS011;1209;48.410;9.054;2023-06-22T14:19:10;7.07;;;5.20;;
2396;SDS011;1209;48.410;9.054;2023-06-22T14:21:36;8.17;;;6.23;;
2396;SDS011;1209;48.410;9.054;2023-06-22T14:24:01;13.67;;;6.57;;
2396;SDS011;1209;48.410;9.054;2023-06-22T14:26:26;8.40;;;5.97;;
2396;SDS011;1209;48.410;9.054;2023-06-22T14:28:52;9.23;;;5.60;;
2396;SDS011;1209;48.410;9.054;2023-06-22T14:31:18;9.43;;;5.70;;
2396;SDS011;1209;48.410;9.054;2023-06-22T14:33:46;8.83;;;6.73;;
2396;SDS011;1209;48.410;9.054;2023-06-22T14:36:13;9.47;;;5.97;;
2396;SDS011;1209;48.410;9.054;2023-06-22T14:38:39;10.07;;;5.73;;
2396;SDS011;1209;48.410;9.054;2023-06-22T14:41:04;8.13;;;5.20;;
2396;SDS011;1209;48.410;9.054;2023-06-22T14:43:29;6.33;;;5.30;;
2396;SDS011;1209;48.410;9.054;2023-06-22T14:45:55;6.40;;;5.30;;
2396;SDS011;1209;48.410;9.054;2023-06-22T14:48:20;6.13;;;4.63;;
2396;SDS011;1209;48.410;9.054;2023-06-22T14:50:45;11.93;;;4.90;;
2396;SDS011;1209;48.410;9.054;2023-06-22T14:53:10;9.13;;;4.77;;
2396;SDS011;1209;48.410;9.054;2023-06-22T14:55:36;9.40;;;4.80;;
2396;SDS011;1209;48.410;9.054;2023-06-22T14:58:01;9.67;;;4.40;;
2396;SDS011;1209;48.410;9.054;2023-06-22T15:00:26;6.17;;;4.00;;
2396;SDS011;1209;48.410;9.054;2023-06-22T15:02:51;8.23;;;4.77;;